createdAt,value
2023-01-01T00:01:43.811Z,23.02
2023-01-01T00:04:15.346Z,20.48
2023-01-01T00:06:43.765Z,25.85
2023-01-01T00:09:29.327Z,24.23
2023-01-01T00:11:55.672Z,23.52
2023-01-01T00:14:22.372Z,27.75
2023-01-01T00:16:49.140Z,20.02
2023-01-01T00:19:16.077Z,24.00
2023-01-01T00:21:42.526Z,23.15
2023-01-01T00:24:09.157Z,26.92
2023-01-01T00:26:35.953Z,24.83
2023-01-01T00:29:03.549Z,27.33
2023-01-01T00:31:30.418Z,29.90
2023-01-01T00:33:58.044Z,25.60
2023-01-01T00:36:26.889Z,28.05
2023-01-01T00:38:53.437Z,31.77
2023-01-01T00:41:21.006Z,27.10
2023-01-01T00:43:47.820Z,28.70
2023-01-01T00:46:14.213Z,35.75
2023-01-01T00:48:41.119Z,35.90
2023-01-01T00:51:08.012Z,38.20
2023-01-01T00:53:34.545Z,38.35
2023-01-01T00:56:01.307Z,40.15
2023-01-01T00:58:27.646Z,35.83
2023-01-01T01:00:54.719Z,45.10
2023-01-01T01:03:31.230Z,45.55
2023-01-01T01:05:58.497Z,35.58
2023-01-01T01:08:30.684Z,38.88
2023-01-01T01:11:13.465Z,35.60
2023-01-01T01:13:40.895Z,38.95
2023-01-01T01:16:14.984Z,41.42
2023-01-01T01:18:42.183Z,48.45
2023-01-01T01:21:08.661Z,43.38
2023-01-01T01:23:35.942Z,39.42
2023-01-01T01:26:14.176Z,48.22
2023-01-01T01:28:48.800Z,51.92
2023-01-01T01:31:16.599Z,48.63
2023-01-01T01:33:45.019Z,59.33
2023-01-01T01:36:12.362Z,49.17
2023-01-01T01:38:38.787Z,49.30
2023-01-01T01:41:05.511Z,47.40
2023-01-01T01:43:34.837Z,46.70
2023-01-01T01:46:11.045Z,45.97
2023-01-01T01:48:40.922Z,42.20
2023-01-01T01:51:07.902Z,50.70
2023-01-01T01:53:39.445Z,76.65
2023-01-01T01:56:13.627Z,65.68
2023-01-01T01:58:40.146Z,67.07
2023-01-01T02:01:06.636Z,66.75
2023-01-01T02:03:52.120Z,73.50
2023-01-01T02:06:19.832Z,73.32
2023-01-01T02:08:46.454Z,56.45
2023-01-01T02:11:17.437Z,54.47
2023-01-01T02:13:46.640Z,50.47
2023-01-01T02:16:20.849Z,45.65
2023-01-01T02:18:54.987Z,39.20
2023-01-01T02:21:28.177Z,38.72
2023-01-01T02:24:06.936Z,44.38
2023-01-01T02:26:50.408Z,37.28
2023-01-01T02:29:26.028Z,39.75
2023-01-01T02:32:07.313Z,42.40
2023-01-01T02:34:41.330Z,35.28
2023-01-01T02:37:12.064Z,36.93
2023-01-01T02:39:46.030Z,31.42
2023-01-01T02:42:12.908Z,25.20
2023-01-01T02:44:43.103Z,25.73
2023-01-01T02:47:16.126Z,23.83
2023-01-01T02:50:06.419Z,26.48
2023-01-01T02:52:41.628Z,27.58
2023-01-01T02:55:15.462Z,28.60
2023-01-01T02:57:51.243Z,32.97
2023-01-01T03:00:20.187Z,31.58
2023-01-01T03:03:11.144Z,37.10
2023-01-01T03:06:23.130Z,35.83
2023-01-01T03:08:53.455Z,33.30
2023-01-01T03:11:22.356Z,25.08
2023-01-01T03:13:58.842Z,19.85
2023-01-01T03:16:34.316Z,13.05
2023-01-01T03:19:13.989Z,9.68
2023-01-01T03:22:11.621Z,17.30
2023-01-01T03:24:45.626Z,13.63
2023-01-01T03:27:19.234Z,21.00
2023-01-01T03:29:48.287Z,13.23
2023-01-01T03:32:21.172Z,13.80
2023-01-01T03:34:55.317Z,22.42
2023-01-01T03:37:28.027Z,20.20
2023-01-01T03:39:59.320Z,16.73
2023-01-01T03:42:34.114Z,23.77
2023-01-01T03:47:31.255Z,18.15
2023-01-01T03:49:58.790Z,21.77
2023-01-01T03:52:53.089Z,22.88
2023-01-01T03:55:36.354Z,20.92
2023-01-01T03:58:19.114Z,22.23
2023-01-01T04:01:01.513Z,24.60
2023-01-01T04:03:31.478Z,19.85
2023-01-01T04:05:58.098Z,20.35
2023-01-01T04:08:24.974Z,19.13
2023-01-01T04:10:57.270Z,19.33
2023-01-01T04:13:23.656Z,18.52
2023-01-01T04:15:50.974Z,17.20
2023-01-01T04:18:17.774Z,21.00
2023-01-01T04:20:44.098Z,21.92
2023-01-01T04:23:10.480Z,20.98
2023-01-01T04:25:37.165Z,25.55
2023-01-01T04:28:03.720Z,23.92
2023-01-01T04:30:30.460Z,22.80
2023-01-01T04:32:57.187Z,29.60
2023-01-01T04:35:23.582Z,21.67
2023-01-01T04:37:49.919Z,22.83
2023-01-01T04:40:16.757Z,22.58
2023-01-01T04:42:43.475Z,23.65
2023-01-01T04:45:12.184Z,25.45
2023-01-01T04:47:39.301Z,27.55
2023-01-01T04:50:06.110Z,22.33
2023-01-01T04:52:32.943Z,24.70
2023-01-01T04:54:59.625Z,26.92
2023-01-01T04:57:25.966Z,30.15
2023-01-01T04:59:52.314Z,29.17
2023-01-01T05:02:19.193Z,31.50
2023-01-01T05:04:45.622Z,28.75
2023-01-01T05:07:11.948Z,24.77
2023-01-01T05:09:38.381Z,21.92
2023-01-01T05:12:04.909Z,19.70
2023-01-01T05:14:31.230Z,20.38
2023-01-01T05:16:58.132Z,24.40
2023-01-01T05:19:24.513Z,18.73
2023-01-01T05:21:50.849Z,22.52
2023-01-01T05:24:17.533Z,27.20
2023-01-01T05:26:44.977Z,29.05
2023-01-01T05:29:16.597Z,23.13
2023-01-01T05:31:44.855Z,23.58
2023-01-01T05:34:11.412Z,28.60
2023-01-01T05:36:39.102Z,29.58
2023-01-01T05:39:08.028Z,27.45
2023-01-01T05:41:36.334Z,22.45
2023-01-01T05:44:05.142Z,28.50
2023-01-01T05:46:32.434Z,23.25
2023-01-01T05:48:59.411Z,26.20
2023-01-01T05:51:28.046Z,26.30
2023-01-01T05:53:55.736Z,28.92
2023-01-01T05:56:22.720Z,26.67
2023-01-01T05:58:49.318Z,24.25
2023-01-01T06:01:28.841Z,24.33
2023-01-01T06:03:56.738Z,23.92
2023-01-01T06:06:26.329Z,23.10
2023-01-01T06:08:55.364Z,19.70
2023-01-01T06:11:22.148Z,22.35
2023-01-01T06:13:48.689Z,21.52
2023-01-01T06:16:15.445Z,17.90
2023-01-01T06:18:41.939Z,17.08
2023-01-01T06:21:13.904Z,21.17
2023-01-01T06:23:41.417Z,17.85
2023-01-01T06:26:13.892Z,21.85
2023-01-01T06:28:41.509Z,18.23
2023-01-01T06:31:10.585Z,14.30
2023-01-01T06:33:38.233Z,16.50
2023-01-01T06:36:08.048Z,12.60
2023-01-01T06:38:36.789Z,13.75
2023-01-01T06:41:06.267Z,15.98
2023-01-01T06:43:35.268Z,17.05
2023-01-01T06:46:06.136Z,14.27
2023-01-01T06:48:36.011Z,14.75
2023-01-01T06:51:17.339Z,18.40
2023-01-01T06:53:44.078Z,18.33
2023-01-01T06:56:10.638Z,18.02
2023-01-01T06:58:37.367Z,17.77
2023-01-01T07:01:08.959Z,17.83
2023-01-01T07:03:36.636Z,21.55
2023-01-01T07:06:03.346Z,18.70
2023-01-01T07:08:30.197Z,18.17
2023-01-01T07:10:57.505Z,18.55
2023-01-01T07:13:25.242Z,18.60
2023-01-01T07:15:52.837Z,19.02
2023-01-01T07:18:20.797Z,20.23
2023-01-01T07:20:56.408Z,26.35
2023-01-01T07:23:23.413Z,20.70
2023-01-01T07:25:50.999Z,21.63
2023-01-01T07:28:17.857Z,22.23
2023-01-01T07:30:44.491Z,20.38
2023-01-01T07:33:16.139Z,24.55
2023-01-01T07:35:45.257Z,21.23
2023-01-01T07:38:12.079Z,21.02
2023-01-01T07:40:38.462Z,17.95
2023-01-01T07:43:05.215Z,21.35
2023-01-01T07:45:31.894Z,17.10
2023-01-01T07:47:59.687Z,15.80
2023-01-01T07:50:29.007Z,19.17
2023-01-01T07:52:55.492Z,18.27
2023-01-01T07:55:22.304Z,20.67
2023-01-01T07:57:49.635Z,20.05
2023-01-01T08:00:19.032Z,21.90
2023-01-01T08:02:45.549Z,16.63
2023-01-01T08:05:12.436Z,20.25
2023-01-01T08:07:38.788Z,16.70
2023-01-01T08:10:07.149Z,13.27
2023-01-01T08:12:34.266Z,15.10
2023-01-01T08:15:00.620Z,13.52
2023-01-01T08:17:26.973Z,14.73
2023-01-01T08:19:53.731Z,22.27
2023-01-01T08:22:20.162Z,23.20
2023-01-01T08:24:46.567Z,21.70
2023-01-01T08:27:17.318Z,19.05
2023-01-01T08:29:44.589Z,24.95
2023-01-01T08:32:11.908Z,21.88
2023-01-01T08:34:38.710Z,22.90
2023-01-01T08:37:05.305Z,22.05
2023-01-01T08:39:32.108Z,20.40
2023-01-01T08:41:58.454Z,18.00
2023-01-01T08:44:24.793Z,15.50
2023-01-01T08:46:53.479Z,15.75
2023-01-01T08:49:19.841Z,19.02
2023-01-01T08:51:46.196Z,16.25
2023-01-01T08:54:12.932Z,15.25
2023-01-01T08:56:39.281Z,16.75
2023-01-01T08:59:06.049Z,13.27
2023-01-01T09:01:32.739Z,16.00
2023-01-01T09:03:59.147Z,14.70
2023-01-01T09:06:25.847Z,14.80
2023-01-01T09:08:52.175Z,14.05
2023-01-01T09:11:27.086Z,14.40
2023-01-01T09:13:54.778Z,18.80
2023-01-01T09:16:22.628Z,17.27
2023-01-01T09:18:49.602Z,16.42
2023-01-01T09:21:16.082Z,18.02
2023-01-01T09:23:43.036Z,13.27
2023-01-01T09:26:10.336Z,12.32
2023-01-01T09:28:37.729Z,20.73
2023-01-01T09:31:06.624Z,15.20
2023-01-01T09:33:33.944Z,18.98
2023-01-01T09:36:14.438Z,15.32
2023-01-01T09:38:40.790Z,17.77
2023-01-01T09:41:34.908Z,18.13
2023-01-01T09:44:24.801Z,21.40
2023-01-01T09:46:53.474Z,18.30
2023-01-01T09:49:37.948Z,15.20
2023-01-01T09:52:05.990Z,16.10
2023-01-01T09:54:39.812Z,10.82
2023-01-01T09:57:16.383Z,7.97
2023-01-01T09:59:46.208Z,12.00
2023-01-01T10:02:51.660Z,13.63
2023-01-01T10:05:44.223Z,9.93
2023-01-01T10:08:35.822Z,11.32
2023-01-01T10:11:18.881Z,9.43
2023-01-01T10:13:46.930Z,7.80
2023-01-01T10:16:26.188Z,8.77
2023-01-01T10:18:56.505Z,10.10
2023-01-01T10:21:39.586Z,12.55
2023-01-01T10:24:40.366Z,14.57
2023-01-01T10:27:07.066Z,12.15
2023-01-01T10:29:45.995Z,11.57
2023-01-01T10:32:20.283Z,12.23
2023-01-01T10:34:48.836Z,12.35
2023-01-01T10:37:15.401Z,11.70
2023-01-01T10:39:43.456Z,16.70
2023-01-01T10:42:13.313Z,9.18
2023-01-01T10:44:40.951Z,8.95
2023-01-01T10:47:27.310Z,10.05
2023-01-01T10:50:07.830Z,8.23
2023-01-01T10:52:43.425Z,9.48
2023-01-01T10:55:29.878Z,8.90
2023-01-01T10:57:56.593Z,8.95
2023-01-01T11:00:28.093Z,7.70
2023-01-01T11:03:19.217Z,6.88
2023-01-01T11:06:05.497Z,8.40
2023-01-01T11:08:33.913Z,13.57
2023-01-01T11:11:02.364Z,7.45
2023-01-01T11:13:30.316Z,5.72
2023-01-01T11:15:57.144Z,10.88
2023-01-01T11:18:36.188Z,9.30
2023-01-01T11:21:05.540Z,7.53
2023-01-01T11:23:36.159Z,6.85
2023-01-01T11:26:04.894Z,9.48
2023-01-01T11:28:34.839Z,7.53
2023-01-01T11:31:19.027Z,9.73
2023-01-01T11:33:50.078Z,7.07
2023-01-01T11:36:32.517Z,8.30
2023-01-01T11:39:25.035Z,6.38
2023-01-01T11:41:54.513Z,6.32
2023-01-01T11:44:38.012Z,7.68
2023-01-01T11:47:07.491Z,5.13
2023-01-01T11:49:34.731Z,7.20
2023-01-01T11:52:01.745Z,10.20
2023-01-01T11:54:34.440Z,6.55
2023-01-01T11:57:12.992Z,9.57
2023-01-01T11:59:51.311Z,4.55
2023-01-01T12:02:36.555Z,5.50
2023-01-01T12:05:43.709Z,6.07
2023-01-01T12:08:16.540Z,2.75
2023-01-01T12:10:52.676Z,5.00
2023-01-01T12:13:24.635Z,2.90
2023-01-01T12:16:11.632Z,6.68
2023-01-01T12:18:47.458Z,5.28
2023-01-01T12:21:24.675Z,6.82
2023-01-01T12:23:51.429Z,5.05
2023-01-01T12:26:26.737Z,7.82
2023-01-01T12:29:13.202Z,5.00
2023-01-01T12:32:02.146Z,6.90
2023-01-01T12:34:38.577Z,4.65
2023-01-01T12:37:11.313Z,4.78
2023-01-01T12:39:55.450Z,4.32
2023-01-01T12:43:00.916Z,4.57
2023-01-01T12:45:39.256Z,4.10
2023-01-01T12:48:31.017Z,4.53
2023-01-01T12:51:14.808Z,3.75
2023-01-01T12:53:44.722Z,3.55
2023-01-01T12:56:23.410Z,5.90
2023-01-01T12:59:17.785Z,5.85
2023-01-01T13:01:45.994Z,5.95
2023-01-01T13:04:20.668Z,4.35
2023-01-01T13:09:35.613Z,5.35
2023-01-01T13:12:08.334Z,4.80
2023-01-01T13:14:42.946Z,4.88
2023-01-01T13:19:49.036Z,7.13
2023-01-01T13:22:27.920Z,5.10
2023-01-01T13:25:20.926Z,6.13
2023-01-01T13:27:56.922Z,5.65
2023-01-01T13:30:36.006Z,6.68
2023-01-01T13:33:28.629Z,10.63
2023-01-01T13:36:13.372Z,6.50
2023-01-01T13:38:54.297Z,6.90
2023-01-01T13:41:35.267Z,5.57
2023-01-01T13:44:02.310Z,6.60
2023-01-01T13:46:44.139Z,5.65
2023-01-01T13:49:31.459Z,5.57
2023-01-01T13:52:32.560Z,6.95
2023-01-01T13:55:30.827Z,5.32
2023-01-01T13:58:27.195Z,6.22
2023-01-01T14:01:23.609Z,3.80
2023-01-01T14:03:53.233Z,5.63
2023-01-01T14:06:39.402Z,7.43
2023-01-01T14:09:11.343Z,6.07
2023-01-01T14:11:37.784Z,8.55
2023-01-01T14:14:24.688Z,7.50
2023-01-01T14:16:52.934Z,8.85
2023-01-01T14:19:19.329Z,10.10
2023-01-01T14:21:46.815Z,7.95
2023-01-01T14:24:16.362Z,6.60
2023-01-01T14:26:43.385Z,7.57
2023-01-01T14:29:16.763Z,5.32
2023-01-01T14:31:44.920Z,6.75
2023-01-01T14:34:27.155Z,8.15
2023-01-01T14:36:55.895Z,6.93
2023-01-01T14:39:31.383Z,6.68
2023-01-01T14:42:00.776Z,7.88
2023-01-01T14:44:40.805Z,6.97
2023-01-01T14:47:32.327Z,4.63
2023-01-01T14:50:18.829Z,6.15
2023-01-01T14:52:45.649Z,6.88
2023-01-01T14:55:19.530Z,3.75
2023-01-01T14:57:50.529Z,5.23
2023-01-01T15:00:32.773Z,5.47
2023-01-01T15:03:07.673Z,6.93
2023-01-01T15:05:36.428Z,4.55
2023-01-01T15:08:06.078Z,6.47
2023-01-01T15:10:35.938Z,4.93
2023-01-01T15:13:06.079Z,5.25
2023-01-01T15:15:39.922Z,6.95
2023-01-01T15:18:27.025Z,5.38
2023-01-01T15:20:55.289Z,8.77
2023-01-01T15:23:21.736Z,4.07
2023-01-01T15:25:48.581Z,7.93
2023-01-01T15:28:23.091Z,5.50
2023-01-01T15:30:57.295Z,5.93
2023-01-01T15:33:24.011Z,5.10
2023-01-01T15:35:52.488Z,6.35
2023-01-01T15:38:19.300Z,4.68
2023-01-01T15:40:52.738Z,4.47
2023-01-01T15:43:29.883Z,7.38
2023-01-01T15:46:11.127Z,4.97
2023-01-01T15:48:51.608Z,6.72
2023-01-01T15:51:26.989Z,4.25
2023-01-01T15:54:00.271Z,6.72
2023-01-01T15:56:32.066Z,5.80
2023-01-01T15:59:08.744Z,7.57
2023-01-01T16:01:38.380Z,11.70
2023-01-01T16:04:22.066Z,11.25
2023-01-01T16:06:54.813Z,10.73
2023-01-01T16:09:21.944Z,10.05
2023-01-01T16:11:57.022Z,8.75
2023-01-01T16:14:24.314Z,9.25
2023-01-01T16:16:57.282Z,10.70
2023-01-01T16:19:24.743Z,8.05
2023-01-01T16:21:51.071Z,13.73
2023-01-01T16:24:19.274Z,11.32
2023-01-01T16:26:47.320Z,7.93
2023-01-01T16:29:14.132Z,9.85
2023-01-01T16:31:41.923Z,12.68
2023-01-01T16:34:13.384Z,8.05
2023-01-01T16:36:39.907Z,8.23
2023-01-01T16:39:06.245Z,13.25
2023-01-01T16:41:32.990Z,8.90
2023-01-01T16:43:59.318Z,11.20
2023-01-01T16:46:28.468Z,9.45
2023-01-01T16:48:54.867Z,8.15
2023-01-01T16:51:24.828Z,11.20
2023-01-01T16:53:51.376Z,8.93
2023-01-01T16:56:18.104Z,6.93
2023-01-01T16:58:49.735Z,5.13
2023-01-01T17:01:17.901Z,4.85
2023-01-01T17:03:44.331Z,4.60
2023-01-01T17:06:11.220Z,4.65
2023-01-01T17:08:39.051Z,5.15
2023-01-01T17:11:10.085Z,4.32
2023-01-01T17:13:36.917Z,6.53
2023-01-01T17:16:03.932Z,4.45
2023-01-01T17:18:55.198Z,8.32
2023-01-01T17:21:18.442Z,7.60
2023-01-01T17:23:45.016Z,7.13
2023-01-01T17:26:15.146Z,4.53
2023-01-01T17:28:42.773Z,3.83
2023-01-01T17:31:11.924Z,6.50
2023-01-01T17:33:38.959Z,4.95
2023-01-01T17:36:06.742Z,5.50
2023-01-01T17:38:33.198Z,5.45
2023-01-01T17:41:05.487Z,5.47
2023-01-01T17:43:37.642Z,4.53
2023-01-01T17:46:06.309Z,5.97
2023-01-01T17:48:33.042Z,5.43
2023-01-01T17:51:00.419Z,6.72
2023-01-01T17:53:27.003Z,6.85
2023-01-01T17:55:53.577Z,7.05
2023-01-01T17:58:20.388Z,6.00
2023-01-01T18:00:46.945Z,6.32
2023-01-01T18:03:14.120Z,8.27
2023-01-01T18:05:41.040Z,6.20
2023-01-01T18:08:07.767Z,4.43
2023-01-01T18:10:34.319Z,6.38
2023-01-01T18:13:01.135Z,6.03
2023-01-01T18:15:27.728Z,7.32
2023-01-01T18:17:54.096Z,6.75
2023-01-01T18:20:20.618Z,6.22
2023-01-01T18:22:47.012Z,8.52
2023-01-01T18:25:13.387Z,9.13
2023-01-01T18:27:40.285Z,11.38
2023-01-01T18:30:07.091Z,5.63
2023-01-01T18:32:33.440Z,3.88
2023-01-01T18:34:59.913Z,4.03
2023-01-01T18:37:26.657Z,5.75
2023-01-01T18:39:55.658Z,6.13
2023-01-01T18:42:35.333Z,3.40
2023-01-01T18:45:13.344Z,4.30
2023-01-01T18:47:40.507Z,3.47
2023-01-01T18:50:25.539Z,4.78
2023-01-01T18:53:03.139Z,6.30
2023-01-01T18:55:30.807Z,5.45
2023-01-01T18:58:16.818Z,3.70
2023-01-01T19:00:43.587Z,5.28
2023-01-01T19:03:19.051Z,5.63
2023-01-01T19:05:47.542Z,8.80
2023-01-01T19:08:17.829Z,4.55
2023-01-01T19:10:46.227Z,4.68
2023-01-01T19:13:37.226Z,5.68
2023-01-01T19:16:29.531Z,4.05
2023-01-01T19:19:06.276Z,5.07
2023-01-01T19:21:33.220Z,5.30
2023-01-01T19:24:02.057Z,3.50
2023-01-01T19:26:34.582Z,8.80
2023-01-01T19:29:16.965Z,7.85
2023-01-01T19:31:45.120Z,6.60
2023-01-01T19:34:11.660Z,9.25
2023-01-01T19:36:38.493Z,10.55
2023-01-01T19:39:05.812Z,9.73
2023-01-01T19:41:32.417Z,9.80
2023-01-01T19:43:58.757Z,8.82
2023-01-01T19:46:25.535Z,10.73
2023-01-01T19:48:53.589Z,11.93
2023-01-01T19:51:22.571Z,8.50
2023-01-01T19:53:53.288Z,10.23
2023-01-01T19:56:20.089Z,9.27
2023-01-01T19:58:46.583Z,11.82
2023-01-01T20:01:14.008Z,8.77
2023-01-01T20:03:54.194Z,9.48
2023-01-01T20:06:21.689Z,9.80
2023-01-01T20:08:48.011Z,9.77
2023-01-01T20:11:15.331Z,7.20
2023-01-01T20:13:42.065Z,9.20
2023-01-01T20:16:08.626Z,10.05
2023-01-01T20:18:35.085Z,8.05
2023-01-01T20:21:25.567Z,10.18
2023-01-01T20:23:52.602Z,10.82
2023-01-01T20:26:21.101Z,9.50
2023-01-01T20:29:05.771Z,7.05
2023-01-01T20:31:32.156Z,5.78
2023-01-01T20:33:58.514Z,7.63
2023-01-01T20:36:43.685Z,8.73
2023-01-01T20:39:10.530Z,8.00
2023-01-01T20:41:36.891Z,8.73
2023-01-01T20:44:03.277Z,6.72
2023-01-01T20:46:30.361Z,9.95
2023-01-01T20:48:57.461Z,9.15
2023-01-01T20:51:23.890Z,7.65
2023-01-01T20:53:50.771Z,7.07
2023-01-01T20:56:17.122Z,8.25
2023-01-01T20:58:48.571Z,8.13
2023-01-01T21:01:17.007Z,8.10
2023-01-01T21:03:43.394Z,8.27
2023-01-01T21:06:09.821Z,7.55
2023-01-01T21:08:36.537Z,8.80
2023-01-01T21:11:03.254Z,8.35
2023-01-01T21:13:29.641Z,8.43
2023-01-01T21:16:02.301Z,9.70
2023-01-01T21:18:30.473Z,8.02
2023-01-01T21:20:56.861Z,6.93
2023-01-01T21:23:30.038Z,6.93
2023-01-01T21:25:57.138Z,6.18
2023-01-01T21:28:27.008Z,7.18
2023-01-01T21:30:56.875Z,8.52
2023-01-01T21:33:28.910Z,5.53
2023-01-01T21:35:55.452Z,7.85
2023-01-01T21:38:26.404Z,7.32
2023-01-01T21:40:54.048Z,7.35
2023-01-01T21:43:33.068Z,6.63
2023-01-01T21:46:14.420Z,8.13
2023-01-01T21:48:47.269Z,6.35
2023-01-01T21:51:22.689Z,5.78
2023-01-01T21:53:49.965Z,6.20
2023-01-01T21:56:37.622Z,6.03
2023-01-01T21:59:35.515Z,8.05
2023-01-01T22:02:08.589Z,5.68
2023-01-01T22:04:40.058Z,6.53
2023-01-01T22:10:25.343Z,7.82
2023-01-01T22:12:59.391Z,5.18
2023-01-01T22:15:25.774Z,4.87
2023-01-01T22:18:12.715Z,6.20
2023-01-01T22:20:41.702Z,7.78
2023-01-01T22:23:23.541Z,5.63
2023-01-01T22:25:51.373Z,8.00
2023-01-01T22:28:33.247Z,5.30
2023-01-01T22:31:01.716Z,6.45
2023-01-01T22:33:38.749Z,8.55
2023-01-01T22:36:22.211Z,7.88
2023-01-01T22:38:49.261Z,8.05
2023-01-01T22:41:15.722Z,5.75
2023-01-01T22:43:45.831Z,5.40
2023-01-01T22:46:27.324Z,5.90
2023-01-01T22:48:58.360Z,7.15
2023-01-01T22:51:28.905Z,6.45
2023-01-01T22:53:55.262Z,4.70
2023-01-01T22:56:21.778Z,7.20
2023-01-01T22:58:54.769Z,4.15
2023-01-01T23:01:23.407Z,6.53
2023-01-01T23:03:50.222Z,6.03
2023-01-01T23:06:18.484Z,5.97
2023-01-01T23:08:45.133Z,7.93
2023-01-01T23:11:11.651Z,8.98
2023-01-01T23:13:56.865Z,8.05
2023-01-01T23:16:23.281Z,6.28
2023-01-01T23:18:49.702Z,6.25
2023-01-01T23:21:26.363Z,6.40
2023-01-01T23:23:56.558Z,8.73
2023-01-01T23:26:23.989Z,5.85
2023-01-01T23:28:51.153Z,6.40
2023-01-01T23:31:25.231Z,9.55
2023-01-01T23:33:52.845Z,8.18
2023-01-01T23:36:19.218Z,8.10
2023-01-01T23:38:46.165Z,8.00
2023-01-01T23:41:12.497Z,8.13
2023-01-01T23:43:43.229Z,6.50
2023-01-01T23:46:11.758Z,6.72
2023-01-01T23:48:38.516Z,6.82
2023-01-01T23:51:05.184Z,8.18
2023-01-01T23:53:31.964Z,6.22
2023-01-01T23:55:58.444Z,8.00
2023-01-01T23:58:25.329Z,7.97
